»·PEaware :: UAL2398 KSAN-KSFO

UAL2398 :: KSAN-KSFO

FLIGHT INFORMATION

Flight Status: Arrived
Operator:
United Airlines
More flights by this operator :: More flights under this callsign
Pilot: Jac C. (16067)
Aircraft: BOEING 737-800
(B738)
More flights by this aircraft type
Origin: KSAN San Diego Intl-Lindbergh
United States
Destination: KSFO San Francisco Intl
United States
More flights between these airports :: More routes between these airports
Route: PADRZ2 IKAYE RIZIN SPLNT STOKD SERFR SERFR3
File this flight plan on PilotEdge
Remarks: PBN / A1B1C1D1S1S2 DOF / 180913 REG / N806SB EET / KZOA0038 OPR / UAL PER / C RMK / TCAS SIMBRIEF
Altitude:
(Current/Filed)
38,000ft
Speed:
(Current/Filed)
450kts
Departed: 13-Sep-18 03:40 PM
Arrived: 13-Sep-18 04:50 PM
Distance/Time
Traveled:
388nm/1:10
Distance/Time
To Go:
Arrived

Flight Plot

Page will automatically refresh every two minutes.

Flight plan parsing failed; only flown route is shown


Map Options




Map Legend


Flown Route
Filed Route
Departure Airport
Arrival Airport
Navaid (VOR, NDB)
Fix

Horizontal Profiles

Position Reports

Time Latitude Longitude Heading Altitude Ground
Speed
13-Sep-18 15:02 32.734192 -117.204757 112 21ft 0kts
13-Sep-18 15:03 32.734192 -117.204757 112 21ft 0kts
13-Sep-18 15:04 32.734192 -117.204757 112 21ft 0kts
13-Sep-18 15:05 32.734192 -117.204757 112 21ft 0kts
13-Sep-18 15:06 32.734192 -117.204757 112 21ft 0kts
13-Sep-18 15:07 32.734192 -117.204757 112 21ft 0kts
13-Sep-18 15:08 32.734192 -117.204757 112 21ft 0kts
13-Sep-18 15:09 32.734192 -117.204757 112 21ft 0kts
13-Sep-18 15:10 32.734192 -117.204757 112 21ft 0kts
13-Sep-18 15:11 32.734192 -117.204757 112 21ft 0kts
13-Sep-18 15:12 32.734192 -117.204757 112 21ft 0kts
13-Sep-18 15:13 32.734192 -117.204757 112 21ft 0kts
13-Sep-18 15:14 32.734192 -117.204757 112 21ft 0kts
13-Sep-18 15:15 32.734192 -117.204757 112 21ft 0kts
13-Sep-18 15:16 32.734192 -117.204757 112 21ft 0kts
13-Sep-18 15:17 32.734192 -117.204757 112 21ft 0kts
13-Sep-18 15:18 32.734192 -117.204757 112 21ft 0kts
13-Sep-18 15:19 32.734192 -117.204757 112 21ft 0kts
13-Sep-18 15:20 32.734192 -117.204757 112 21ft 0kts
13-Sep-18 15:21 32.734192 -117.204757 112 21ft 0kts
13-Sep-18 15:22 32.734192 -117.204757 112 21ft 0kts
13-Sep-18 15:23 32.734192 -117.204757 112 21ft 0kts
13-Sep-18 15:24 32.734192 -117.204757 112 21ft 0kts
13-Sep-18 15:25 32.734192 -117.204757 112 21ft 0kts
13-Sep-18 15:26 32.734192 -117.204758 112 21ft 0kts
13-Sep-18 15:27 32.734192 -117.204758 112 21ft 0kts
13-Sep-18 15:28 32.734192 -117.204758 112 21ft 0kts
13-Sep-18 15:29 32.734192 -117.204758 112 21ft 0kts
13-Sep-18 15:30 32.734192 -117.204758 112 21ft 0kts
13-Sep-18 15:31 32.734192 -117.204758 112 21ft 0kts
13-Sep-18 15:32 32.734163 -117.205325 53 20ft 2kts
13-Sep-18 15:33 32.733751 -117.205556 359 20ft 0kts
13-Sep-18 15:34 32.733752 -117.205556 359 20ft 0kts
13-Sep-18 15:35 32.734529 -117.205516 11 19ft 11kts
13-Sep-18 15:36 32.735169 -117.200594 105 23ft 19kts
13-Sep-18 15:37 32.733751 -117.194741 106 23ft 19kts
13-Sep-18 15:38 32.732231 -117.188472 105 23ft 19kts
13-Sep-18 15:39 32.730736 -117.182293 106 21ft 19kts
13-Sep-18 15:40 32.729532 -117.177328 104 21ft 14kts
13-Sep-18 15:41 32.729774 -117.175924 50 22ft 12kts
13-Sep-18 15:42 32.735840 -117.199099 287 347ft 151kts
13-Sep-18 15:43 32.759277 -117.248633 305 1947ft 219kts
13-Sep-18 15:44 32.798427 -117.316523 302 4680ft 264kts
13-Sep-18 15:45 32.843637 -117.387488 306 7834ft 278kts
13-Sep-18 15:46 32.892263 -117.462883 305 10353ft 307kts
13-Sep-18 15:47 32.946800 -117.547713 306 12703ft 333kts
13-Sep-18 15:48 33.003758 -117.636460 304 15297ft 343kts
13-Sep-18 15:49 33.061878 -117.727147 305 17765ft 349kts
13-Sep-18 15:50 33.127159 -117.795859 315 19814ft 358kts
13-Sep-18 15:51 33.199232 -117.869180 311 21627ft 365kts
13-Sep-18 15:52 33.267925 -117.959545 306 23408ft 372kts
13-Sep-18 15:53 33.336968 -118.052637 306 25030ft 380kts
13-Sep-18 15:54 33.406017 -118.145968 306 26493ft 387kts
13-Sep-18 15:55 33.477905 -118.243383 306 27871ft 394kts
13-Sep-18 15:56 33.550542 -118.342068 306 29160ft 400kts
13-Sep-18 15:57 33.623636 -118.441567 306 30679ft 396kts
13-Sep-18 15:58 33.695710 -118.539934 306 32095ft 391kts
13-Sep-18 15:59 33.766847 -118.637284 306 33386ft 386kts
13-Sep-18 16:00 33.835656 -118.731791 305 34570ft 383kts
13-Sep-18 16:01 33.905403 -118.827885 305 35649ft 380kts
13-Sep-18 16:02 33.974343 -118.923087 304 36628ft 378kts
13-Sep-18 16:03 34.043331 -119.018619 304 37479ft 377kts
13-Sep-18 16:04 34.109339 -119.110333 304 37977ft 384kts
13-Sep-18 16:05 34.176481 -119.204000 304 37954ft 405kts
13-Sep-18 16:06 34.251677 -119.309105 304 37954ft 425kts
13-Sep-18 16:07 34.329302 -119.417695 304 37947ft 426kts
13-Sep-18 16:08 34.406376 -119.525850 304 37948ft 426kts
13-Sep-18 16:09 34.489108 -119.629568 308 37947ft 430kts
13-Sep-18 16:10 34.572403 -119.731890 307 37957ft 429kts
13-Sep-18 16:11 34.656048 -119.835098 307 37966ft 429kts
13-Sep-18 16:12 34.739454 -119.938380 307 37982ft 429kts
13-Sep-18 16:13 34.822630 -120.041716 307 37994ft 429kts
13-Sep-18 16:14 34.905850 -120.145431 307 38007ft 429kts
13-Sep-18 16:15 34.988433 -120.248605 306 38018ft 425kts
13-Sep-18 16:16 35.070465 -120.351429 306 38018ft 422kts
13-Sep-18 16:17 35.131751 -120.423855 309 38006ft 426kts
13-Sep-18 16:18 35.214137 -120.515636 309 38000ft 427kts
13-Sep-18 16:19 35.300093 -120.611929 309 37999ft 426kts
13-Sep-18 16:20 35.386683 -120.709397 308 38010ft 426kts
13-Sep-18 16:21 35.473457 -120.807466 308 37999ft 426kts
13-Sep-18 16:22 35.567241 -120.897938 314 37992ft 433kts
13-Sep-18 16:23 35.663472 -120.986535 314 37987ft 428kts
13-Sep-18 16:24 35.752120 -121.068410 312 37996ft 387kts
13-Sep-18 16:25 35.838631 -121.149302 312 37989ft 393kts
13-Sep-18 16:26 35.925266 -121.230372 312 35737ft 391kts
13-Sep-18 16:27 36.011352 -121.311185 312 33219ft 389kts
13-Sep-18 16:28 36.097895 -121.389431 318 31191ft 395kts
13-Sep-18 16:29 36.174581 -121.448670 318 29492ft 380kts
13-Sep-18 16:30 36.256462 -121.512250 319 27686ft 366kts
13-Sep-18 16:31 36.341323 -121.578565 319 25835ft 361kts
13-Sep-18 16:32 36.411444 -121.633554 320 24298ft 354kts
13-Sep-18 16:33 36.504369 -121.706582 319 22317ft 340kts
13-Sep-18 16:34 36.582865 -121.768536 320 20617ft 330kts
13-Sep-18 16:35 36.646650 -121.819019 320 19270ft 326kts
13-Sep-18 16:36 36.735724 -121.889554 325 17350ft 324kts
13-Sep-18 16:37 36.823698 -121.918483 343 15738ft 325kts
13-Sep-18 16:38 36.896195 -121.938356 343 14469ft 318kts
13-Sep-18 16:39 36.980811 -121.964404 339 13006ft 308kts
13-Sep-18 16:40 37.074491 -122.000892 340 11349ft 300kts
13-Sep-18 16:41 37.136768 -122.025216 340 10176ft 288kts
13-Sep-18 16:42 37.208745 -122.053363 340 9031ft 279kts
13-Sep-18 16:43 37.280485 -122.081475 340 7984ft 268kts
13-Sep-18 16:44 37.349682 -122.108716 340 6513ft 263kts
13-Sep-18 16:45 37.418514 -122.134046 342 5214ft 253kts
13-Sep-18 16:46 37.483007 -122.156109 342 4022ft 232kts
13-Sep-18 16:47 37.536201 -122.184719 313 2891ft 188kts
13-Sep-18 16:48 37.560168 -122.236021 296 2088ft 155kts
13-Sep-18 16:49 37.577984 -122.278138 295 1433ft 134kts
13-Sep-18 16:50 37.595244 -122.319126 292 722ft 131kts
13-Sep-18 16:51 37.611588 -122.358078 291 57ft 119kts
13-Sep-18 16:52 37.618966 -122.376381 275 17ft 16kts
13-Sep-18 16:53 37.618945 -122.380042 279 17ft 12kts
13-Sep-18 16:54 37.620749 -122.384764 272 17ft 9kts
13-Sep-18 16:55 37.618998 -122.385318 154 17ft 2kts
13-Sep-18 16:56 37.618803 -122.385196 155 17ft 0kts

Navigation Log

Ident Type
Flight plan parsing failed, navigation log unavailable